Lake Charles, LA (70607)

10:59 AM CDT on September 04, 2015 (GMT -0500)
Bayouwood | | Change Station
CLOSE
Current Station
Personal Weather Station
Location: Lake Charles, LA
Elevation: 15 ft
Nearby Weather Stations

Elev 15 ft 30.18 °N, 93.24 °W | Updated 4 minutes ago

Overcast
Overcast
86.1 °F
Feels Like 97 °F
N
0.0
Wind Variable Wind from SSW
Gusts 1.0 mph

Today
High -- | Low -- °F
--% Chance of Precip.
Yesterday
High -- | Low -- °F
Precip. -- in
6:51 AM 7:31 PM
Waning Gibbous, 58% visible
Pressure 30.02 in
Visibility 10.0 miles
Clouds Mostly Cloudy 1500 ft
Heat Index 97 °F
Dew Point 77 °F
Humidity 74%
Rainfall 0.00 in
Snow Depth Not available.
UV 4 out of 12
Pollen 6.60 out of 12
Air Quality Not available.
Flu Activity Not available.
METAR KLCH 041553Z 15009KT 10SM -RA BKN015 26/24 A3000 RMK AO2 RAB37 SLP165 P0000 T02560239
Pressure 30.02 in
Visibility 10.0 miles
Clouds Mostly Cloudy 1500 ft
Heat Index 97 °F
Dew Point 77 °F
Humidity 74%
Rainfall 0.00 in
Snow Depth Not available.
UV 4 out of 12
Pollen 6.60 out of 12
Air Quality Not available.
Flu Activity Not available.
METAR KLCH 041553Z 15009KT 10SM -RA BKN015 26/24 A3000 RMK AO2 RAB37 SLP165 P0000 T02560239

10-Day Weather Forecast

×

Almanac

Astronomy

Sep. 04, 2015 Rise Set
Actual Time
Civil Twilight
Nautical Twilight
Astronomical Twilight
Moon
Length of Visible Light
Length of Day
Tomorrow will be .
, % of the Moon is Illuminated

Today's Extremes

State Highs State Lows

Community

WunderPhotos

Upload Photos

1,852,197 photos uploaded!

WunderBlogs® & News

Nearby

Air Quality

  Air Quality AQ Index Pollutant
Not available.

Snow Depth

Station Depth Elevation

Earthquake Activity

City Distance Mag. Time & Date
Minimum magnitude displayed is 2.5.

Coastal Water Temperatures

Place Temperature

Stations

Nearby Weather Stations

Station Location Temp. Windchill Dew Point Humidity Wind Precip. Elev Updated Type